Terminal Aerodrome Forecast
Issued by NWS

Home | Current Version | Previous Version | Text Only | Print | Product List | Glossary On
Versions: 1 2 3 4 5 6 7 8 9 10 11 12 13 14 15 16 17 18 19 20 21 22 23 24
000
FTUS43 KAPX 281404 AAB
TAFTVC
TAF AMD
KTVC 281404Z 2814/2912 02004KT 5SM BR OVC008
      TEMPO 2814/2816 2SM BR OVC003
     FM281600 02006KT P6SM SCT012
     FM281700 01007KT P6SM SCT200
     FM290100 01006KT P6SM FEW110=

USA.gov is the U.S. government's official web portal to all federal, state and local government web resources and services.